Pagrindinis puslapis
METAR-TAF:

METAR-TAF

Oro uostai :

Huslia, Aliaska, Jungtinės Amerikos Valstijos

platuma: 65-41-52N, ilguma: 156-21-05W, Aukštis: 65 m

Dabartinis oras

Ataskaita buvo paskelbta 16 minutes, ne 22:56 UTC
Vėjas 13 kt iš Rytų/Šiaurės Rytų su gūsio iki 20 kt
Temperatūra 10°C
Drėgmė 53%
Slėgis 1001 hPa
Matomumas: 16.1 km
Giedras dangus

METAR: PAHL 302256Z AUTO 06013G20KT 10SM CLR 10/01 A2955 RMK AO2 SLP009 T01000011

Laikas: 15:12 (23:12 UTC)


TAF: trūkstamas

Orai ataskaitas ir orų prognozės (METAR, TAF).

turimą stotys yra geltonos ir raudonos taškus žemėlapyje.

Perkelti pele per norėdami pamatyti stoties vardą.

Tada spustelėkite, norėdami matyti oro stebėjimo ir prognozės.

Norėdami pakeisti žemėlapį: spustelėkite ant žalios mygtukų su juodo kryžiaus žemyn,; žalią mygtuką su brūkšneliu, jei norite nutolinti; arba žalių rodyklių gretimoms žemėlapius.


METAR-TAF: